createdAt,value
2023-04-16T00:00:58.013Z,100761.84
2023-04-16T00:02:01.887Z,100759.09
2023-04-16T00:03:05.812Z,100761.50
2023-04-16T00:04:09.872Z,100761.03
2023-04-16T00:05:14.588Z,100769.78
2023-04-16T00:06:18.238Z,100763.00
2023-04-16T00:07:21.904Z,100769.91
2023-04-16T00:08:25.548Z,100779.22
2023-04-16T00:09:29.250Z,100780.47
2023-04-16T00:10:32.951Z,100780.09
2023-04-16T00:11:36.614Z,100783.31
2023-04-16T00:12:40.290Z,100787.25
2023-04-16T00:13:43.953Z,100763.25
2023-04-16T00:14:47.593Z,100790.47
2023-04-16T00:15:52.908Z,100783.31
2023-04-16T00:16:56.563Z,100790.47
2023-04-16T00:18:00.247Z,100788.84
2023-04-16T00:19:03.883Z,100786.09
2023-04-16T00:20:08.581Z,100786.09
2023-04-16T00:21:12.250Z,100793.56
2023-04-16T00:22:15.921Z,100796.44
2023-04-16T00:23:19.567Z,100793.69
2023-04-16T00:24:23.186Z,100796.91
2023-04-16T00:25:26.790Z,100803.22
2023-04-16T00:26:30.561Z,100804.03
2023-04-16T00:27:34.278Z,100810.34
2023-04-16T00:28:38.181Z,100817.47
2023-04-16T00:29:41.843Z,100806.88
2023-04-16T00:30:45.533Z,100809.63
2023-04-16T00:31:50.954Z,100813.53
2023-04-16T00:32:54.669Z,100814.16
2023-04-16T00:33:58.682Z,100816.75
2023-04-16T00:35:02.296Z,100827.47
2023-04-16T00:36:06.681Z,100821.13
2023-04-16T00:37:10.403Z,100811.50
2023-04-16T00:38:14.201Z,100827.47
2023-04-16T00:39:17.860Z,100829.97
2023-04-16T00:40:21.588Z,100824.00
2023-04-16T00:41:25.535Z,100829.19
2023-04-16T00:42:29.193Z,100834.34
2023-04-16T00:43:32.849Z,100838.69
2023-04-16T00:44:36.544Z,100841.41
2023-04-16T00:45:40.237Z,100841.00
2023-04-16T00:46:44.596Z,100837.03
2023-04-16T00:47:50.189Z,100836.22
2023-04-16T00:48:57.240Z,100833.69
2023-04-16T00:50:01.012Z,100839.22
2023-04-16T00:51:06.496Z,100823.16
2023-04-16T00:52:12.231Z,100841.97
2023-04-16T00:53:16.332Z,100844.75
2023-04-16T00:54:20.294Z,100840.38
2023-04-16T00:55:24.128Z,100844.50
2023-04-16T00:56:27.899Z,100845.66
2023-04-16T00:57:32.054Z,100852.19
2023-04-16T00:58:36.138Z,100849.06
2023-04-16T00:59:39.750Z,100843.53
2023-04-16T01:00:43.677Z,100846.41
2023-04-16T01:01:47.520Z,100852.28
2023-04-16T01:02:53.155Z,100844.50
2023-04-16T01:03:57.156Z,100847.34
2023-04-16T01:05:02.079Z,100848.16
2023-04-16T01:06:07.002Z,100848.97
2023-04-16T01:07:10.642Z,100845.38
2023-04-16T01:08:18.506Z,100852.53
2023-04-16T01:09:23.402Z,100847.44
2023-04-16T01:10:27.095Z,100856.72
2023-04-16T01:11:30.746Z,100848.44
2023-04-16T01:12:34.442Z,100852.56
2023-04-16T01:13:38.366Z,100841.69
2023-04-16T01:14:41.973Z,100847.28
2023-04-16T01:15:45.782Z,100843.63
2023-04-16T01:16:49.422Z,100846.03
2023-04-16T01:17:54.740Z,100850.31
2023-04-16T01:18:58.404Z,100850.31
2023-04-16T01:20:02.209Z,100853.97
2023-04-16T01:21:07.742Z,100859.94
2023-04-16T01:22:11.414Z,100854.88
2023-04-16T01:23:15.134Z,100853.81
2023-04-16T01:24:18.726Z,100862.56
2023-04-16T01:25:22.396Z,100866.94
2023-04-16T01:26:26.013Z,100851.75
2023-04-16T01:27:29.721Z,100865.09
2023-04-16T01:28:33.406Z,100873.47
2023-04-16T01:29:37.092Z,100874.25
2023-04-16T01:30:40.853Z,100867.41
2023-04-16T01:31:44.691Z,100877.38
2023-04-16T01:32:48.551Z,100888.09
2023-04-16T01:33:52.344Z,100879.25
2023-04-16T01:34:56.045Z,100885.31
2023-04-16T01:35:59.872Z,100889.81
2023-04-16T01:37:06.159Z,100888.66
2023-04-16T01:38:10.386Z,100887.91
2023-04-16T01:39:14.052Z,100891.59
2023-04-16T01:40:17.774Z,100894.25
2023-04-16T01:41:21.503Z,100885.59
2023-04-16T01:42:25.161Z,100898.75
2023-04-16T01:43:28.850Z,100897.03
2023-04-16T01:44:32.571Z,100897.03
2023-04-16T01:45:36.575Z,100908.00
2023-04-16T01:46:40.498Z,100908.00
2023-04-16T01:47:44.511Z,100904.94
2023-04-16T01:48:48.367Z,100907.78
2023-04-16T01:49:52.179Z,100913.44
2023-04-16T01:50:55.872Z,100915.38
2023-04-16T01:51:59.587Z,100903.69
2023-04-16T01:53:05.090Z,100917.25
2023-04-16T01:54:09.113Z,100920.81
2023-04-16T01:55:12.922Z,100914.94
2023-04-16T01:56:16.588Z,100919.75
2023-04-16T01:57:20.272Z,100915.88
2023-04-16T01:58:23.985Z,100917.38
2023-04-16T01:59:27.609Z,100913.94
2023-04-16T02:00:31.379Z,100909.81
2023-04-16T02:01:35.128Z,100906.78
2023-04-16T02:02:38.985Z,100901.03
2023-04-16T02:03:43.104Z,100898.84
2023-04-16T02:04:47.132Z,100888.38
2023-04-16T02:05:50.812Z,100895.78
2023-04-16T02:06:54.412Z,100896.66
2023-04-16T02:07:58.051Z,100898.81
2023-04-16T02:09:03.480Z,100899.84
2023-04-16T02:10:08.133Z,100904.88
2023-04-16T02:11:11.961Z,100907.78
2023-04-16T02:12:15.934Z,100908.78
2023-04-16T02:13:19.932Z,100922.47
2023-04-16T02:14:23.605Z,100919.00
2023-04-16T02:15:27.320Z,100926.34
2023-04-16T02:16:31.146Z,100924.84
2023-04-16T02:17:34.887Z,100923.34
2023-04-16T02:18:38.551Z,100929.16
2023-04-16T02:19:42.218Z,100930.72
2023-04-16T02:20:46.962Z,100937.84
2023-04-16T02:21:52.077Z,100932.09
2023-04-16T02:22:55.741Z,100935.84
2023-04-16T02:23:59.350Z,100932.03
2023-04-16T02:25:04.869Z,100937.84
2023-04-16T02:26:08.692Z,100939.22
2023-04-16T02:27:12.464Z,100940.38
2023-04-16T02:28:17.950Z,100929.56
2023-04-16T02:29:21.679Z,100946.91
2023-04-16T02:30:25.517Z,100950.00
2023-04-16T02:31:29.219Z,100947.47
2023-04-16T02:32:32.926Z,100941.38
2023-04-16T02:33:36.612Z,100949.50
2023-04-16T02:34:40.419Z,100950.97
2023-04-16T02:35:44.390Z,100947.06
2023-04-16T02:36:48.071Z,100940.72
2023-04-16T02:37:51.719Z,100945.50
2023-04-16T02:38:55.379Z,100922.38
2023-04-16T02:39:59.110Z,100921.56
2023-04-16T02:41:04.493Z,100937.84
2023-04-16T02:42:08.097Z,100933.31
2023-04-16T02:43:11.784Z,100930.31
2023-04-16T02:44:15.361Z,100940.22
2023-04-16T02:45:19.114Z,100936.28
2023-04-16T02:46:23.008Z,100934.69
2023-04-16T02:47:26.887Z,100937.09
2023-04-16T02:48:30.640Z,100940.56
2023-04-16T02:49:34.353Z,100916.72
2023-04-16T02:50:38.049Z,100932.44
2023-04-16T02:51:41.823Z,100926.91
2023-04-16T02:52:45.478Z,100929.44
2023-04-16T02:53:49.118Z,100929.78
2023-04-16T02:54:52.796Z,100935.03
2023-04-16T02:55:57.210Z,100928.00
2023-04-16T02:57:02.947Z,100925.75
2023-04-16T02:58:06.610Z,100923.69
2023-04-16T02:59:10.579Z,100924.31
2023-04-16T03:00:14.896Z,100918.44
2023-04-16T03:01:18.588Z,100924.88
2023-04-16T03:02:22.380Z,100924.31
2023-04-16T03:03:28.943Z,100929.69
2023-04-16T03:04:34.260Z,100936.25
2023-04-16T03:05:39.737Z,100940.84
2023-04-16T03:06:43.988Z,100936.34
2023-04-16T03:07:47.718Z,100929.41
2023-04-16T03:08:51.402Z,100935.47
2023-04-16T03:09:55.060Z,100926.38
2023-04-16T03:10:58.728Z,100926.91
2023-04-16T03:12:04.107Z,100927.34
2023-04-16T03:13:08.360Z,100923.97
2023-04-16T03:14:11.999Z,100924.25
2023-04-16T03:15:15.668Z,100928.97
2023-04-16T03:16:19.435Z,100921.56
2023-04-16T03:17:23.227Z,100928.97
2023-04-16T03:18:26.845Z,100929.66
2023-04-16T03:19:30.662Z,100905.88
2023-04-16T03:20:34.397Z,100897.88
2023-04-16T03:21:38.021Z,100922.00
2023-04-16T03:22:41.669Z,100923.06
2023-04-16T03:23:45.340Z,100922.53
2023-04-16T03:24:49.036Z,100907.53
2023-04-16T03:25:52.842Z,100922.69
2023-04-16T03:26:58.332Z,100921.78
2023-04-16T03:28:03.727Z,100926.09
2023-04-16T03:29:07.717Z,100893.44
2023-04-16T03:30:13.878Z,100929.47
2023-04-16T03:31:17.565Z,100933.94
2023-04-16T03:32:21.237Z,100937.84
2023-04-16T03:33:24.977Z,100940.53
2023-04-16T03:34:28.686Z,100941.78
2023-04-16T03:35:32.382Z,100941.88
2023-04-16T03:36:36.065Z,100942.69
2023-04-16T03:37:39.790Z,100946.41
2023-04-16T03:38:43.384Z,100948.69
2023-04-16T03:39:47.102Z,100945.75
2023-04-16T03:40:50.724Z,100948.78
2023-04-16T03:41:54.391Z,100939.56
2023-04-16T03:42:58.119Z,100940.72
2023-04-16T03:44:03.378Z,100936.22
2023-04-16T03:45:07.906Z,100935.44
2023-04-16T03:46:11.819Z,100935.28
2023-04-16T03:47:15.761Z,100936.66
2023-04-16T03:48:19.464Z,100936.75
2023-04-16T03:49:23.158Z,100932.13
2023-04-16T03:50:26.836Z,100932.72
2023-04-16T03:51:30.575Z,100932.94
2023-04-16T03:52:34.163Z,100935.84
2023-04-16T03:53:37.862Z,100927.44
2023-04-16T03:54:41.478Z,100923.97
2023-04-16T03:55:45.179Z,100926.63
2023-04-16T03:56:48.968Z,100927.44
2023-04-16T03:57:52.859Z,100928.91
2023-04-16T03:58:56.478Z,100923.56
2023-04-16T04:00:01.813Z,100922.88
2023-04-16T04:01:05.617Z,100928.00
2023-04-16T04:02:09.389Z,100917.06
2023-04-16T04:03:13.524Z,100921.19
2023-04-16T04:04:18.059Z,100918.97
2023-04-16T04:05:21.835Z,100921.91
2023-04-16T04:06:25.622Z,100913.25
2023-04-16T04:07:29.308Z,100915.31
2023-04-16T04:08:33.100Z,100920.03
2023-04-16T04:09:36.820Z,100913.00
2023-04-16T04:10:40.436Z,100922.00
2023-04-16T04:11:44.131Z,100889.25
2023-04-16T04:12:48.106Z,100922.34
2023-04-16T04:13:51.736Z,100919.75
2023-04-16T04:14:55.522Z,100916.03
2023-04-16T04:16:00.829Z,100919.50
2023-04-16T04:17:04.496Z,100922.00
2023-04-16T04:18:08.147Z,100909.09
2023-04-16T04:19:12.184Z,100909.16
2023-04-16T04:20:15.867Z,100905.53
2023-04-16T04:21:19.571Z,100913.44
2023-04-16T04:22:23.214Z,100915.56
2023-04-16T04:23:26.835Z,100907.81
2023-04-16T04:24:30.507Z,100909.69
2023-04-16T04:25:34.188Z,100904.44
2023-04-16T04:26:37.887Z,100909.00
2023-04-16T04:27:41.696Z,100892.66
2023-04-16T04:28:45.397Z,100896.59
2023-04-16T04:29:49.014Z,100903.91
2023-04-16T04:30:52.805Z,100901.84
2023-04-16T04:31:58.191Z,100897.34
2023-04-16T04:33:02.006Z,100900.13
2023-04-16T04:34:05.781Z,100896.53
2023-04-16T04:35:10.247Z,100893.44
2023-04-16T04:36:13.865Z,100892.16
2023-04-16T04:37:17.666Z,100896.25
2023-04-16T04:38:21.322Z,100895.09
2023-04-16T04:39:25.033Z,100903.56
2023-04-16T04:40:28.805Z,100894.34
2023-04-16T04:41:32.846Z,100900.50
2023-04-16T04:42:36.603Z,100888.13
2023-04-16T04:43:40.308Z,100892.38
2023-04-16T04:44:43.957Z,100889.63
2023-04-16T04:45:47.701Z,100891.53
2023-04-16T04:46:51.439Z,100889.72
2023-04-16T04:47:56.895Z,100879.75
2023-04-16T04:49:00.661Z,100886.63
2023-04-16T04:50:04.516Z,100882.03
2023-04-16T04:51:08.213Z,100883.13
2023-04-16T04:52:11.913Z,100876.25
2023-04-16T04:53:15.587Z,100872.84
2023-04-16T04:54:19.305Z,100867.47
2023-04-16T04:55:22.993Z,100865.63
2023-04-16T04:56:26.686Z,100875.69
2023-04-16T04:57:30.364Z,100862.56
2023-04-16T04:58:34.096Z,100867.47
2023-04-16T04:59:37.747Z,100853.31
2023-04-16T05:00:41.472Z,100863.09
2023-04-16T05:01:45.251Z,100863.59
2023-04-16T05:02:49.110Z,100859.09
2023-04-16T05:03:54.574Z,100853.56
2023-04-16T05:04:58.296Z,100854.25
2023-04-16T05:06:01.924Z,100848.47
2023-04-16T05:07:05.677Z,100857.84
2023-04-16T05:08:09.370Z,100856.78
2023-04-16T05:09:13.048Z,100851.69
2023-04-16T05:10:16.828Z,100834.19
2023-04-16T05:11:20.426Z,100850.97
2023-04-16T05:12:24.060Z,100848.28
2023-04-16T05:13:27.876Z,100849.16
2023-04-16T05:14:31.474Z,100845.00
2023-04-16T05:15:35.316Z,100845.09
2023-04-16T05:16:39.279Z,100849.56
2023-04-16T05:17:42.977Z,100848.38
2023-04-16T05:18:46.646Z,100833.88
2023-04-16T05:19:51.918Z,100846.03
2023-04-16T05:20:55.503Z,100844.50
2023-04-16T05:21:59.180Z,100839.69
2023-04-16T05:23:02.884Z,100838.03
2023-04-16T05:24:07.046Z,100837.03
2023-04-16T05:25:10.960Z,100834.41
2023-04-16T05:26:14.599Z,100834.69
2023-04-16T05:27:18.360Z,100827.69
2023-04-16T05:28:22.020Z,100825.66
2023-04-16T05:29:25.700Z,100827.25
2023-04-16T05:30:29.361Z,100826.47
2023-04-16T05:31:33.281Z,100822.00
2023-04-16T05:32:36.933Z,100816.53
2023-04-16T05:33:40.602Z,100827.38
2023-04-16T05:34:44.256Z,100823.50
2023-04-16T05:35:49.714Z,100827.91
2023-04-16T05:36:53.450Z,100818.31
2023-04-16T05:37:57.108Z,100818.91
2023-04-16T05:39:00.687Z,100815.03
2023-04-16T05:40:04.317Z,100818.94
2023-04-16T05:41:07.970Z,100811.94
2023-04-16T05:42:11.675Z,100816.81
2023-04-16T05:43:15.343Z,100813.19
2023-04-16T05:44:18.914Z,100814.56
2023-04-16T05:45:22.797Z,100801.72
2023-04-16T05:46:26.532Z,100800.66
2023-04-16T05:47:30.268Z,100793.25
2023-04-16T05:48:34.039Z,100798.34
2023-04-16T05:49:37.699Z,100790.41
2023-04-16T05:50:41.390Z,100806.00
2023-04-16T05:51:47.360Z,100806.53
2023-04-16T05:52:51.064Z,100805.00
2023-04-16T05:53:54.757Z,100803.13
2023-04-16T05:54:58.467Z,100794.75
2023-04-16T05:56:02.257Z,100794.38
2023-04-16T05:57:05.920Z,100793.91
2023-04-16T05:58:09.582Z,100802.81
2023-04-16T05:59:13.443Z,100791.81
2023-04-16T06:00:17.400Z,100794.38
2023-04-16T06:01:22.055Z,100787.28
2023-04-16T06:02:26.028Z,100779.97
2023-04-16T06:03:29.819Z,100785.44
2023-04-16T06:04:33.521Z,100784.56
2023-04-16T06:05:37.112Z,100784.63
2023-04-16T06:06:40.833Z,100784.00
2023-04-16T06:07:46.244Z,100792.31
2023-04-16T06:08:49.852Z,100788.03
2023-04-16T06:09:53.606Z,100789.00
2023-04-16T06:10:57.252Z,100782.22
2023-04-16T06:12:01.241Z,100789.00
2023-04-16T06:13:05.043Z,100781.63
2023-04-16T06:14:08.735Z,100782.84
2023-04-16T06:15:12.929Z,100772.16
2023-04-16T06:16:16.555Z,100758.25
2023-04-16T06:17:20.526Z,100764.09
2023-04-16T06:18:24.302Z,100768.22
2023-04-16T06:19:28.007Z,100759.94
2023-04-16T06:20:31.778Z,100762.16
2023-04-16T06:21:35.486Z,100765.84
2023-04-16T06:22:39.275Z,100756.69
2023-04-16T06:23:44.694Z,100766.25
2023-04-16T06:24:48.422Z,100769.88
2023-04-16T06:25:52.113Z,100750.72
2023-04-16T06:26:55.864Z,100757.94
2023-04-16T06:27:59.528Z,100753.84
2023-04-16T06:29:03.182Z,100751.41
2023-04-16T06:30:12.007Z,100754.00
2023-04-16T06:31:15.786Z,100743.63
2023-04-16T06:32:19.527Z,100740.72
2023-04-16T06:33:23.422Z,100741.50
2023-04-16T06:34:29.565Z,100734.22
2023-04-16T06:35:33.316Z,100740.03
2023-04-16T06:36:36.938Z,100724.53
2023-04-16T06:37:40.668Z,100729.34
2023-04-16T06:38:46.192Z,100722.78
2023-04-16T06:39:49.850Z,100721.69
2023-04-16T06:40:53.740Z,100720.75
2023-04-16T06:41:57.604Z,100713.31
2023-04-16T06:43:01.473Z,100679.56
2023-04-16T06:44:05.166Z,100718.50
2023-04-16T06:45:10.039Z,100713.91
2023-04-16T06:46:13.622Z,100708.81
2023-04-16T06:47:17.798Z,100710.94
2023-04-16T06:48:21.563Z,100670.56
2023-04-16T06:49:25.292Z,100709.06
2023-04-16T06:50:29.098Z,100706.66
2023-04-16T06:51:32.894Z,100702.19
2023-04-16T06:52:36.887Z,100699.47
2023-04-16T06:53:40.645Z,100705.16
2023-04-16T06:54:45.965Z,100688.41
2023-04-16T06:55:49.635Z,100694.09
2023-04-16T06:56:53.240Z,100692.31
2023-04-16T06:57:56.833Z,100700.13
2023-04-16T06:59:00.654Z,100696.06
2023-04-16T07:00:04.876Z,100675.09
2023-04-16T07:01:08.577Z,100693.25
2023-04-16T07:02:12.408Z,100693.69
2023-04-16T07:03:16.188Z,100694.13
2023-04-16T07:04:20.116Z,100701.56
2023-04-16T07:05:23.743Z,100695.69
2023-04-16T07:06:27.481Z,100699.94
2023-04-16T07:07:31.216Z,100700.53
2023-04-16T07:08:34.927Z,100699.34
2023-04-16T07:09:38.558Z,100693.53
2023-04-16T07:10:43.839Z,100702.25
2023-04-16T07:11:47.639Z,100681.31
2023-04-16T07:12:51.382Z,100688.34
2023-04-16T07:13:55.112Z,100681.84
2023-04-16T07:14:58.793Z,100666.91
2023-04-16T07:16:02.481Z,100679.34
2023-04-16T07:17:06.358Z,100670.16
2023-04-16T07:18:10.074Z,100671.88
2023-04-16T07:19:13.749Z,100673.69
2023-04-16T07:20:17.463Z,100673.13
2023-04-16T07:21:21.181Z,100658.25
2023-04-16T07:22:24.808Z,100665.59
2023-04-16T07:23:28.512Z,100661.59
2023-04-16T07:24:32.216Z,100653.13
2023-04-16T07:25:35.900Z,100659.31
2023-04-16T07:26:41.269Z,100643.56
2023-04-16T07:27:45.019Z,100641.28
2023-04-16T07:28:48.763Z,100641.84
2023-04-16T07:29:52.489Z,100639.56
2023-04-16T07:30:56.171Z,100638.13
2023-04-16T07:31:59.965Z,100618.78
2023-04-16T07:33:04.650Z,100633.03
2023-04-16T07:34:08.412Z,100628.31
2023-04-16T07:35:12.153Z,100633.94
2023-04-16T07:36:15.803Z,100626.69
2023-04-16T07:37:19.450Z,100623.22
2023-04-16T07:38:23.741Z,100630.81
2023-04-16T07:39:27.499Z,100616.94
2023-04-16T07:40:31.337Z,100640.75
2023-04-16T07:41:35.020Z,100630.53
2023-04-16T07:42:40.311Z,100629.84
2023-04-16T07:43:43.973Z,100645.44
2023-04-16T07:44:47.656Z,100649.53
2023-04-16T07:45:51.241Z,100641.16
2023-04-16T07:46:54.947Z,100641.69
2023-04-16T07:47:58.618Z,100635.25
2023-04-16T07:49:02.371Z,100635.03
2023-04-16T07:50:06.953Z,100631.41
2023-04-16T07:51:10.745Z,100631.47
2023-04-16T07:52:14.625Z,100643.00
2023-04-16T07:53:18.283Z,100636.28
2023-04-16T07:54:21.902Z,100635.19
2023-04-16T07:55:25.734Z,100639.78
2023-04-16T07:56:29.404Z,100633.88
2023-04-16T07:57:33.188Z,100631.13
2023-04-16T07:58:38.447Z,100629.72
2023-04-16T07:59:42.102Z,100641.47
2023-04-16T08:00:45.800Z,100625.19
2023-04-16T08:01:49.804Z,100640.66
2023-04-16T08:02:53.890Z,100622.69
2023-04-16T08:03:58.066Z,100628.22
2023-04-16T08:05:01.910Z,100621.94
2023-04-16T08:06:05.727Z,100630.81
2023-04-16T08:07:09.424Z,100623.41
2023-04-16T08:08:13.263Z,100617.50
2023-04-16T08:09:16.917Z,100618.00
2023-04-16T08:10:20.697Z,100620.97
2023-04-16T08:11:25.083Z,100611.53
2023-04-16T08:12:29.875Z,100616.56
2023-04-16T08:13:33.713Z,100609.69
2023-04-16T08:14:39.162Z,100615.69
2023-04-16T08:15:42.847Z,100608.19
2023-04-16T08:16:50.169Z,100587.63
2023-04-16T08:17:53.923Z,100592.66
2023-04-16T08:18:57.665Z,100598.03
2023-04-16T08:20:01.560Z,100598.56
2023-04-16T08:21:05.348Z,100596.63
2023-04-16T08:22:09.118Z,100589.34
2023-04-16T08:23:12.804Z,100580.75
2023-04-16T08:24:16.583Z,100570.25
2023-04-16T08:25:20.306Z,100578.41
2023-04-16T08:26:23.995Z,100575.81
2023-04-16T08:27:27.659Z,100574.72
2023-04-16T08:28:31.461Z,100569.91
2023-04-16T08:29:35.157Z,100576.88
2023-04-16T08:30:40.439Z,100571.84
2023-04-16T08:31:44.293Z,100577.88
2023-04-16T08:32:50.049Z,100580.03
2023-04-16T08:33:54.069Z,100568.63
2023-04-16T08:34:58.270Z,100576.47
2023-04-16T08:36:01.984Z,100585.00
2023-04-16T08:37:05.699Z,100571.06
2023-04-16T08:38:09.328Z,100574.75
2023-04-16T08:39:13.485Z,100572.31
2023-04-16T08:40:17.893Z,100563.66
2023-04-16T08:41:24.326Z,100562.06
2023-04-16T08:42:33.143Z,100548.78
2023-04-16T08:43:39.022Z,100559.06
2023-04-16T08:44:49.315Z,100569.75
2023-04-16T08:45:56.798Z,100561.88
2023-04-16T08:47:01.737Z,100562.09
2023-04-16T08:48:07.323Z,100569.44
2023-04-16T08:49:17.926Z,100575.47
2023-04-16T08:50:25.463Z,100567.53
2023-04-16T08:51:34.767Z,100565.22
2023-04-16T08:52:44.019Z,100563.03
2023-04-16T08:53:53.052Z,100565.34
2023-04-16T08:55:04.714Z,100554.06
2023-04-16T08:56:12.506Z,100554.69
2023-04-16T08:57:20.938Z,100557.88
2023-04-16T08:58:29.981Z,100549.50
2023-04-16T08:59:34.034Z,100552.63
2023-04-16T09:00:40.345Z,100544.00
2023-04-16T09:01:46.357Z,100533.31
2023-04-16T09:02:50.877Z,100549.81
2023-04-16T09:03:55.343Z,100545.16
2023-04-16T09:05:01.138Z,100546.88
2023-04-16T09:06:07.159Z,100545.09
2023-04-16T09:07:11.304Z,100549.63
2023-04-16T09:08:15.182Z,100545.75
2023-04-16T09:09:21.785Z,100551.28
2023-04-16T09:10:27.605Z,100554.47
2023-04-16T09:11:31.360Z,100551.50
2023-04-16T09:12:36.366Z,100558.91
2023-04-16T09:13:40.060Z,100545.38
2023-04-16T09:14:43.892Z,100559.47
2023-04-16T09:15:48.050Z,100556.84
2023-04-16T09:16:54.410Z,100556.66
2023-04-16T09:17:58.111Z,100553.97
2023-04-16T09:19:01.942Z,100548.63
2023-04-16T09:20:07.603Z,100540.25
2023-04-16T09:21:11.765Z,100544.44
2023-04-16T09:22:15.428Z,100549.25
2023-04-16T09:23:19.195Z,100548.63
2023-04-16T09:24:23.774Z,100544.38
2023-04-16T09:25:27.619Z,100533.91
2023-04-16T09:26:31.920Z,100558.31
2023-04-16T09:27:36.049Z,100534.78
2023-04-16T09:28:43.783Z,100554.75
2023-04-16T09:29:47.390Z,100547.22
2023-04-16T09:30:51.075Z,100536.03
2023-04-16T09:32:05.641Z,100547.16
2023-04-16T09:33:17.965Z,100548.91
2023-04-16T09:34:21.585Z,100530.81
2023-04-16T09:35:25.218Z,100537.75
2023-04-16T09:36:28.960Z,100533.19
2023-04-16T09:37:33.025Z,100528.38
2023-04-16T09:38:49.492Z,100528.00
2023-04-16T09:39:57.923Z,100524.44
2023-04-16T09:41:08.138Z,100520.97
2023-04-16T09:42:12.017Z,100482.66
2023-04-16T09:43:16.980Z,100502.22
2023-04-16T09:44:20.677Z,100535.50
2023-04-16T09:45:24.447Z,100522.66
2023-04-16T09:46:32.265Z,100506.56
2023-04-16T09:47:44.689Z,100527.81
2023-04-16T09:48:48.356Z,100523.91
2023-04-16T09:49:52.051Z,100527.94
2023-04-16T09:50:55.692Z,100523.69
2023-04-16T09:51:59.381Z,100528.13
2023-04-16T09:53:03.686Z,100528.28
2023-04-16T09:54:07.615Z,100521.66
2023-04-16T09:55:11.331Z,100529.97
2023-04-16T09:56:14.998Z,100533.19
2023-04-16T09:57:22.106Z,100519.69
2023-04-16T09:58:25.889Z,100525.25
2023-04-16T09:59:29.644Z,100534.47
2023-04-16T10:00:33.298Z,100535.25
2023-04-16T10:01:38.145Z,100534.34
2023-04-16T10:02:43.551Z,100540.72
2023-04-16T10:03:51.241Z,100547.78
2023-04-16T10:04:55.747Z,100539.16
2023-04-16T10:06:02.098Z,100543.25
2023-04-16T10:07:07.333Z,100534.25
2023-04-16T10:08:15.009Z,100535.06
2023-04-16T10:09:18.583Z,100547.91
2023-04-16T10:10:23.073Z,100544.28
2023-04-16T10:11:26.750Z,100548.50
2023-04-16T10:12:30.576Z,100553.75
2023-04-16T10:13:34.240Z,100558.53
2023-04-16T10:14:37.937Z,100558.03
2023-04-16T10:15:42.452Z,100553.56
2023-04-16T10:16:46.499Z,100556.19
2023-04-16T10:17:53.133Z,100559.91
2023-04-16T10:18:57.660Z,100560.88
2023-04-16T10:20:02.442Z,100558.97
2023-04-16T10:21:06.450Z,100556.13
2023-04-16T10:22:10.598Z,100564.94
2023-04-16T10:23:14.826Z,100551.91
2023-04-16T10:24:20.810Z,100559.63
2023-04-16T10:25:24.991Z,100544.56
2023-04-16T10:26:30.306Z,100559.56
2023-04-16T10:27:34.373Z,100549.28
2023-04-16T10:28:38.463Z,100542.44
2023-04-16T10:29:42.388Z,100553.56
2023-04-16T10:30:49.249Z,100540.91
2023-04-16T10:31:54.043Z,100546.16
2023-04-16T10:33:00.696Z,100547.00
2023-04-16T10:34:05.453Z,100543.25
2023-04-16T10:35:09.714Z,100540.31
2023-04-16T10:36:14.763Z,100538.53
2023-04-16T10:37:18.429Z,100539.25
2023-04-16T10:38:26.887Z,100544.56
2023-04-16T10:39:30.587Z,100531.03
2023-04-16T10:40:36.125Z,100534.28
2023-04-16T10:41:40.391Z,100531.88
2023-04-16T10:42:54.156Z,100535.22
2023-04-16T10:44:06.397Z,100525.00
2023-04-16T10:45:12.578Z,100524.34
2023-04-16T10:46:20.836Z,100524.78
2023-04-16T10:47:27.108Z,100522.41
2023-04-16T10:48:42.359Z,100525.13
2023-04-16T10:49:53.517Z,100521.38
2023-04-16T10:50:58.249Z,100526.19
2023-04-16T10:52:08.171Z,100526.63
2023-04-16T10:53:25.862Z,100538.72
2023-04-16T10:54:30.592Z,100529.34
2023-04-16T10:55:34.228Z,100534.50
2023-04-16T10:56:38.338Z,100538.09
2023-04-16T10:57:42.026Z,100531.13
2023-04-16T10:58:45.725Z,100532.38
2023-04-16T10:59:50.540Z,100528.44
2023-04-16T11:00:54.416Z,100526.94
2023-04-16T11:02:00.633Z,100532.28
2023-04-16T11:03:06.157Z,100529.53
2023-04-16T11:04:40.412Z,100531.50
2023-04-16T11:05:47.717Z,100531.53
2023-04-16T11:07:03.201Z,100527.94
2023-04-16T11:08:16.252Z,100519.63
2023-04-16T11:10:00.711Z,100523.31
2023-04-16T11:11:06.506Z,100529.09
2023-04-16T11:12:12.903Z,100535.78
2023-04-16T11:13:19.328Z,100539.25
2023-04-16T11:14:22.962Z,100548.44
2023-04-16T11:15:26.798Z,100556.00
2023-04-16T11:16:33.433Z,100562.34
2023-04-16T11:17:39.849Z,100557.97
2023-04-16T11:18:50.877Z,100561.53
2023-04-16T11:19:57.335Z,100562.34
2023-04-16T11:21:01.318Z,100572.31
2023-04-16T11:22:05.406Z,100547.97
2023-04-16T11:23:12.103Z,100571.97
2023-04-16T11:24:15.718Z,100560.56
2023-04-16T11:25:22.746Z,100567.69
2023-04-16T11:26:28.289Z,100576.97
2023-04-16T11:27:32.439Z,100577.44
2023-04-16T11:28:36.692Z,100572.56
2023-04-16T11:29:40.317Z,100566.03
2023-04-16T11:30:44.006Z,100564.41
2023-04-16T11:31:51.938Z,100572.81
2023-04-16T11:32:55.912Z,100568.13
2023-04-16T11:33:59.749Z,100577.69
2023-04-16T11:35:06.294Z,100576.16
2023-04-16T11:36:10.186Z,100578.91
2023-04-16T11:37:13.956Z,100559.97
2023-04-16T11:38:19.801Z,100584.00
2023-04-16T11:39:23.589Z,100586.75
2023-04-16T11:40:31.225Z,100580.09
2023-04-16T11:41:34.958Z,100572.34
2023-04-16T11:42:39.288Z,100566.81
2023-04-16T11:43:42.984Z,100568.44
2023-04-16T11:44:46.744Z,100570.84
2023-04-16T11:45:58.384Z,100529.25
2023-04-16T11:47:07.410Z,100564.50
2023-04-16T11:48:11.310Z,100566.47
2023-04-16T11:49:15.018Z,100566.88
2023-04-16T11:50:22.678Z,100566.81
2023-04-16T11:51:26.480Z,100552.47
2023-04-16T11:52:31.720Z,100565.31
2023-04-16T11:53:35.484Z,100559.69
2023-04-16T11:54:39.349Z,100566.38
2023-04-16T11:55:45.154Z,100550.72
2023-04-16T11:56:49.913Z,100566.72
2023-04-16T11:57:53.556Z,100556.84
2023-04-16T11:59:14.426Z,100556.88
2023-04-16T12:00:18.472Z,100566.59
2023-04-16T12:01:22.369Z,100561.50
2023-04-16T12:02:39.248Z,100565.47
2023-04-16T12:03:43.905Z,100566.22
2023-04-16T12:04:48.032Z,100575.22
2023-04-16T12:05:53.376Z,100578.09
2023-04-16T12:07:14.783Z,100588.78
2023-04-16T12:08:30.488Z,100582.06
2023-04-16T12:09:34.436Z,100584.31
2023-04-16T12:10:53.149Z,100561.00
2023-04-16T12:11:56.768Z,100589.41
2023-04-16T12:13:12.328Z,100566.19
2023-04-16T12:14:16.049Z,100586.63
2023-04-16T12:15:19.895Z,100585.84
2023-04-16T12:16:26.125Z,100586.28
2023-04-16T12:17:30.271Z,100579.16
2023-04-16T12:18:34.095Z,100579.09